createdAt,value
2019-05-25T00:00:28.901Z,14.40
2019-05-25T00:02:55.421Z,14.40
2019-05-25T00:05:22.170Z,14.40
2019-05-25T00:07:48.514Z,14.40
2019-05-25T00:10:15.311Z,14.40
2019-05-25T00:12:41.687Z,14.40
2019-05-25T00:15:08.629Z,14.40
2019-05-25T00:17:34.983Z,14.40
2019-05-25T00:20:01.705Z,14.40
2019-05-25T00:22:30.907Z,14.50
2019-05-25T00:24:57.423Z,14.50
2019-05-25T00:27:24.083Z,14.50
2019-05-25T00:29:50.897Z,14.50
2019-05-25T00:32:17.404Z,14.50
2019-05-25T00:34:43.898Z,14.60
2019-05-25T00:37:10.459Z,14.50
2019-05-25T00:39:36.977Z,14.50
2019-05-25T00:42:03.357Z,14.50
2019-05-25T00:44:29.703Z,14.50
2019-05-25T00:46:56.049Z,14.50
2019-05-25T00:49:22.808Z,14.40
2019-05-25T00:51:49.227Z,14.50
2019-05-25T00:54:27.440Z,14.50
2019-05-25T00:56:44.919Z,14.50
2019-05-25T00:59:11.255Z,14.50
2019-05-25T01:01:37.606Z,14.50
2019-05-25T01:04:03.985Z,14.50
2019-05-25T01:06:30.327Z,14.50
2019-05-25T01:08:56.682Z,14.50
2019-05-25T01:11:23.346Z,14.50
2019-05-25T01:13:49.699Z,14.50
2019-05-25T01:16:16.044Z,14.50
2019-05-25T01:18:42.393Z,14.60
2019-05-25T01:21:08.722Z,14.60
2019-05-25T01:23:35.405Z,14.60
2019-05-25T01:26:01.737Z,14.60
2019-05-25T01:28:28.088Z,14.60
2019-05-25T01:30:54.410Z,14.50
2019-05-25T01:33:21.046Z,14.50
2019-05-25T01:35:47.414Z,14.40
2019-05-25T01:38:13.745Z,14.40
2019-05-25T01:40:40.444Z,14.30
2019-05-25T01:43:07.798Z,14.10
2019-05-25T01:45:34.136Z,14.10
2019-05-25T01:48:00.455Z,14.00
2019-05-25T01:50:26.852Z,13.90
2019-05-25T01:52:53.189Z,13.80
2019-05-25T01:55:21.409Z,13.60
2019-05-25T01:57:49.718Z,13.50
2019-05-25T02:00:23.693Z,13.40
2019-05-25T02:02:50.038Z,13.40
2019-05-25T02:05:17.065Z,13.40
2019-05-25T02:07:43.409Z,13.30
2019-05-25T02:10:10.619Z,13.30
2019-05-25T02:12:36.970Z,13.30
2019-05-25T02:15:09.281Z,13.30
2019-05-25T02:17:35.664Z,13.30
2019-05-25T02:20:05.714Z,13.30
2019-05-25T02:22:32.046Z,13.20
2019-05-25T02:24:58.396Z,13.20
2019-05-25T02:27:24.774Z,13.30
2019-05-25T02:29:51.140Z,13.30
2019-05-25T02:32:17.460Z,13.30
2019-05-25T02:34:44.662Z,13.20
2019-05-25T02:37:11.157Z,13.10
2019-05-25T02:39:37.483Z,13.10
2019-05-25T02:42:04.100Z,13.20
2019-05-25T02:44:30.464Z,13.00
2019-05-25T02:46:56.787Z,13.10
2019-05-25T02:49:23.130Z,13.10
2019-05-25T02:51:49.452Z,13.20
2019-05-25T02:54:16.151Z,13.30
2019-05-25T02:56:42.468Z,13.30
2019-05-25T02:59:08.825Z,13.20
2019-05-25T03:01:35.206Z,13.20
2019-05-25T03:04:01.518Z,13.20
2019-05-25T03:06:28.760Z,13.20
2019-05-25T03:08:55.903Z,13.20
2019-05-25T03:11:22.366Z,13.30
2019-05-25T03:13:48.913Z,13.30
2019-05-25T03:16:15.311Z,13.20
2019-05-25T03:18:41.712Z,13.20
2019-05-25T03:21:09.259Z,13.20
2019-05-25T03:23:35.596Z,13.10
2019-05-25T03:26:01.914Z,13.10
2019-05-25T03:28:28.281Z,13.20
2019-05-25T03:30:54.698Z,13.20
2019-05-25T03:33:21.068Z,13.30
2019-05-25T03:35:47.696Z,13.30
2019-05-25T03:38:14.374Z,13.40
2019-05-25T03:40:40.750Z,13.30
2019-05-25T03:43:07.177Z,13.20
2019-05-25T03:45:33.778Z,13.20
2019-05-25T03:48:00.354Z,13.10
2019-05-25T03:50:27.048Z,13.10
2019-05-25T03:52:53.425Z,13.00
2019-05-25T03:55:19.862Z,13.00
2019-05-25T03:57:46.212Z,13.10
2019-05-25T04:00:14.577Z,13.10
2019-05-25T04:02:41.163Z,13.00
2019-05-25T04:05:07.902Z,13.20
2019-05-25T04:07:34.306Z,13.30
2019-05-25T04:10:00.692Z,13.40
2019-05-25T04:12:27.537Z,13.40
2019-05-25T04:14:53.941Z,13.60
2019-05-25T04:17:20.272Z,13.70
2019-05-25T04:19:49.803Z,13.80
2019-05-25T04:22:16.265Z,13.70
2019-05-25T04:24:42.697Z,13.80
2019-05-25T04:27:09.008Z,14.00
2019-05-25T04:29:37.344Z,14.20
2019-05-25T04:32:04.017Z,14.40
2019-05-25T04:34:30.347Z,14.40
2019-05-25T04:36:56.728Z,14.50
2019-05-25T04:39:23.120Z,14.70
2019-05-25T04:41:50.552Z,14.60
2019-05-25T04:44:16.956Z,14.80
2019-05-25T04:46:43.590Z,14.90
2019-05-25T04:49:09.950Z,15.10
2019-05-25T04:51:36.284Z,15.50
2019-05-25T04:54:03.209Z,15.70
2019-05-25T04:56:39.112Z,15.90
2019-05-25T04:58:57.807Z,16.00
2019-05-25T05:01:24.129Z,16.00
2019-05-25T05:03:50.548Z,15.90
2019-05-25T05:06:16.867Z,15.90
2019-05-25T05:08:43.227Z,15.90
2019-05-25T05:11:09.559Z,15.90
2019-05-25T05:13:35.926Z,16.00
2019-05-25T05:16:04.353Z,16.10
2019-05-25T05:18:30.699Z,16.30
2019-05-25T05:20:58.195Z,16.30
2019-05-25T05:23:24.525Z,16.20
2019-05-25T05:25:50.966Z,16.30
2019-05-25T05:28:17.581Z,16.30
2019-05-25T05:30:43.948Z,16.10
2019-05-25T05:33:10.339Z,16.00
2019-05-25T05:35:39.064Z,15.90
2019-05-25T05:38:06.118Z,15.80
2019-05-25T05:40:34.405Z,15.90
2019-05-25T05:43:08.785Z,15.90
2019-05-25T05:45:41.200Z,15.90
2019-05-25T05:48:09.810Z,15.90
2019-05-25T05:50:38.558Z,15.70
2019-05-25T05:53:04.887Z,16.10
2019-05-25T05:55:31.735Z,16.40
2019-05-25T05:58:00.478Z,16.60
2019-05-25T06:00:27.054Z,17.00
2019-05-25T06:02:53.815Z,17.20
2019-05-25T06:05:20.282Z,17.40
2019-05-25T06:07:46.633Z,17.60
2019-05-25T06:10:13.278Z,17.60
2019-05-25T06:12:39.814Z,17.70
2019-05-25T06:15:06.573Z,17.50
2019-05-25T06:17:32.919Z,17.60
2019-05-25T06:19:59.364Z,17.80
2019-05-25T06:22:25.752Z,18.10
2019-05-25T06:24:52.636Z,18.20
2019-05-25T06:27:27.629Z,18.30
2019-05-25T06:29:47.269Z,18.50
2019-05-25T06:32:13.628Z,17.90
2019-05-25T06:34:40.217Z,17.80
2019-05-25T06:37:06.661Z,17.80
2019-05-25T06:39:34.348Z,17.80
2019-05-25T06:42:00.781Z,18.10
2019-05-25T06:44:27.161Z,18.20
2019-05-25T06:46:53.639Z,18.30
2019-05-25T06:49:20.211Z,18.20
2019-05-25T06:51:48.835Z,18.60
2019-05-25T06:54:15.296Z,18.40
2019-05-25T06:56:42.021Z,18.40
2019-05-25T06:59:11.370Z,18.40
2019-05-25T07:01:37.987Z,18.50
2019-05-25T07:04:04.378Z,18.50
2019-05-25T07:06:30.750Z,18.60
2019-05-25T07:08:57.116Z,18.90
2019-05-25T07:11:23.495Z,18.80
2019-05-25T07:13:49.857Z,18.90
2019-05-25T07:16:16.253Z,19.30
2019-05-25T07:18:42.641Z,19.30
2019-05-25T07:21:09.278Z,19.30
2019-05-25T07:23:35.972Z,18.90
2019-05-25T07:26:03.437Z,18.90
2019-05-25T07:28:30.913Z,19.00
2019-05-25T07:30:57.245Z,19.00
2019-05-25T07:33:23.706Z,19.10
2019-05-25T07:35:51.956Z,19.20
2019-05-25T07:38:18.326Z,19.60
2019-05-25T07:40:44.704Z,19.50
2019-05-25T07:43:11.363Z,19.90
2019-05-25T07:45:37.729Z,19.90
2019-05-25T07:48:04.090Z,20.00
2019-05-25T07:50:30.458Z,20.20
2019-05-25T07:52:56.788Z,20.40
2019-05-25T07:55:24.181Z,20.30
2019-05-25T07:57:50.616Z,20.50
2019-05-25T08:00:17.350Z,20.50
2019-05-25T08:02:43.897Z,20.30
2019-05-25T08:05:11.754Z,20.00
2019-05-25T08:07:38.134Z,20.00
2019-05-25T08:10:05.361Z,20.10
2019-05-25T08:12:32.842Z,20.20
2019-05-25T08:15:10.146Z,20.30
2019-05-25T08:17:36.592Z,20.20
2019-05-25T08:20:07.461Z,20.20
2019-05-25T08:22:34.254Z,20.30
2019-05-25T08:25:09.656Z,20.40
2019-05-25T08:27:36.140Z,20.40
2019-05-25T08:30:07.291Z,20.20
2019-05-25T08:32:33.795Z,20.70
2019-05-25T08:35:00.126Z,20.50
2019-05-25T08:37:26.920Z,20.80
2019-05-25T08:39:53.271Z,21.10
2019-05-25T08:42:19.649Z,21.30
2019-05-25T08:44:46.011Z,21.60
2019-05-25T08:47:12.499Z,21.90
2019-05-25T08:49:38.859Z,22.40
2019-05-25T08:52:06.296Z,22.20
2019-05-25T08:54:32.632Z,22.50
2019-05-25T08:56:58.987Z,22.50
2019-05-25T08:59:25.346Z,22.50
2019-05-25T09:01:53.665Z,22.00
2019-05-25T09:04:19.985Z,21.80
2019-05-25T09:06:46.380Z,21.10
2019-05-25T09:09:12.709Z,20.40
2019-05-25T09:11:39.061Z,20.40
2019-05-25T09:14:05.389Z,20.20
2019-05-25T09:16:32.146Z,20.20
2019-05-25T09:18:58.857Z,19.60
2019-05-25T09:21:25.401Z,19.50
2019-05-25T09:23:51.835Z,19.60
2019-05-25T09:26:18.277Z,19.70
2019-05-25T09:28:44.613Z,19.90
2019-05-25T09:31:11.249Z,19.70
2019-05-25T09:33:37.936Z,20.00
2019-05-25T09:36:04.390Z,20.10
2019-05-25T09:38:31.067Z,20.10
2019-05-25T09:40:57.785Z,20.20
2019-05-25T09:43:24.439Z,19.70
2019-05-25T09:45:54.645Z,19.70
2019-05-25T09:48:21.153Z,20.00
2019-05-25T09:50:47.533Z,20.70
2019-05-25T09:53:13.925Z,21.00
2019-05-25T09:55:45.563Z,21.40
2019-05-25T09:58:12.145Z,21.20
2019-05-25T10:00:45.006Z,21.40
2019-05-25T10:03:31.652Z,20.90
2019-05-25T10:05:58.221Z,21.00
2019-05-25T10:08:24.829Z,21.50
2019-05-25T10:10:51.168Z,21.80
2019-05-25T10:13:17.600Z,21.90
2019-05-25T10:15:44.124Z,22.20
2019-05-25T10:18:10.522Z,22.10
2019-05-25T10:20:37.294Z,22.10
2019-05-25T10:23:05.506Z,22.20
2019-05-25T10:25:32.320Z,22.40
2019-05-25T10:27:58.707Z,22.70
2019-05-25T10:30:25.136Z,22.80
2019-05-25T10:32:51.901Z,22.50
2019-05-25T10:35:18.742Z,22.40
2019-05-25T10:37:45.316Z,22.60
2019-05-25T10:40:12.206Z,22.70
2019-05-25T10:42:39.969Z,23.00
2019-05-25T10:45:08.506Z,22.60
2019-05-25T10:47:34.978Z,22.20
2019-05-25T10:50:08.611Z,22.10
2019-05-25T10:52:34.993Z,22.50
2019-05-25T10:55:02.175Z,22.60
2019-05-25T10:57:28.912Z,22.80
2019-05-25T10:59:55.281Z,22.80
2019-05-25T11:02:21.604Z,22.80
2019-05-25T11:04:48.219Z,22.60
2019-05-25T11:07:14.865Z,22.70
2019-05-25T11:09:41.375Z,23.10
2019-05-25T11:12:07.717Z,22.90
2019-05-25T11:14:34.053Z,22.00
2019-05-25T11:17:00.429Z,22.60
2019-05-25T11:19:26.775Z,22.80
2019-05-25T11:21:53.591Z,23.40
2019-05-25T11:24:20.080Z,23.60
2019-05-25T11:26:46.426Z,23.80
2019-05-25T11:29:12.779Z,24.10
2019-05-25T11:31:40.319Z,24.10
2019-05-25T11:34:06.675Z,24.00
2019-05-25T11:36:34.149Z,23.80
2019-05-25T11:39:01.596Z,24.10
2019-05-25T11:41:29.274Z,24.30
2019-05-25T11:43:57.327Z,24.50
2019-05-25T11:46:24.861Z,24.20
2019-05-25T11:48:51.251Z,23.60
2019-05-25T11:51:17.930Z,24.70
2019-05-25T11:53:44.301Z,24.40
2019-05-25T11:56:10.623Z,24.20
2019-05-25T11:58:47.069Z,25.40
2019-05-25T12:01:05.445Z,26.50
2019-05-25T12:03:31.941Z,27.70
2019-05-25T12:05:58.302Z,28.40
2019-05-25T12:08:24.647Z,29.30
2019-05-25T12:10:51.011Z,29.50
2019-05-25T12:13:17.335Z,27.70
2019-05-25T12:15:43.742Z,27.10
2019-05-25T12:18:10.450Z,26.50
2019-05-25T12:20:36.902Z,25.90
2019-05-25T12:23:04.059Z,25.40
2019-05-25T12:25:31.012Z,25.80
2019-05-25T12:27:57.381Z,26.20
2019-05-25T12:30:39.428Z,26.00
2019-05-25T12:32:53.294Z,26.40
2019-05-25T12:35:19.729Z,27.20
2019-05-25T12:37:53.506Z,28.20
2019-05-25T12:40:21.158Z,28.40
2019-05-25T12:42:47.500Z,29.60
2019-05-25T12:45:14.084Z,32.60
2019-05-25T12:47:40.681Z,32.90
2019-05-25T12:50:07.474Z,32.00
2019-05-25T12:52:33.937Z,32.00
2019-05-25T12:55:01.238Z,33.80
2019-05-25T12:57:27.568Z,35.30
2019-05-25T12:59:53.919Z,34.40
2019-05-25T13:02:22.608Z,33.00
2019-05-25T13:05:15.881Z,30.60
2019-05-25T13:07:43.050Z,29.50
2019-05-25T13:10:10.714Z,29.80
2019-05-25T13:12:37.148Z,30.00
2019-05-25T13:15:06.319Z,29.90
2019-05-25T13:17:32.646Z,31.40
2019-05-25T13:19:59.154Z,32.70
2019-05-25T13:22:26.605Z,33.60
2019-05-25T13:24:53.282Z,33.00
2019-05-25T13:27:19.947Z,33.40
2019-05-25T13:29:46.582Z,33.20
2019-05-25T13:32:12.918Z,29.80
2019-05-25T13:34:39.248Z,29.20
2019-05-25T13:37:05.696Z,29.30
2019-05-25T13:39:33.685Z,28.90
2019-05-25T13:42:00.022Z,28.60
2019-05-25T13:44:26.834Z,26.90
2019-05-25T13:46:53.321Z,28.20
2019-05-25T13:49:19.939Z,29.80
2019-05-25T13:51:50.670Z,30.90
2019-05-25T13:54:17.464Z,31.00
2019-05-25T13:56:44.109Z,29.70
2019-05-25T13:59:13.448Z,30.50
2019-05-25T14:01:39.837Z,29.70
2019-05-25T14:04:06.492Z,30.40
2019-05-25T14:06:33.205Z,31.00
2019-05-25T14:08:59.548Z,31.40
2019-05-25T14:11:27.004Z,30.90
2019-05-25T14:13:53.438Z,30.50
2019-05-25T14:16:19.808Z,29.50
2019-05-25T14:18:46.682Z,29.00
2019-05-25T14:21:13.363Z,29.00
2019-05-25T14:23:40.812Z,30.00
2019-05-25T14:26:08.203Z,30.50
2019-05-25T14:28:34.596Z,29.40
2019-05-25T14:31:00.905Z,28.90
2019-05-25T14:33:27.292Z,29.20
2019-05-25T14:35:55.632Z,29.40
2019-05-25T14:38:22.325Z,28.20
2019-05-25T14:40:48.675Z,27.80
2019-05-25T14:43:14.983Z,26.90
2019-05-25T14:45:43.221Z,25.20
2019-05-25T14:48:09.571Z,24.90
2019-05-25T14:50:36.400Z,26.00
2019-05-25T14:53:04.688Z,28.00
2019-05-25T14:55:31.006Z,29.10
2019-05-25T14:57:57.436Z,29.50
2019-05-25T15:00:25.317Z,29.90
2019-05-25T15:02:52.029Z,31.60
2019-05-25T15:05:18.682Z,32.80
2019-05-25T15:07:46.467Z,32.40
2019-05-25T15:10:13.836Z,32.50
2019-05-25T15:12:40.145Z,32.50
2019-05-25T15:15:07.430Z,32.80
2019-05-25T15:17:37.251Z,32.20
2019-05-25T15:20:10.755Z,31.90
2019-05-25T15:22:37.554Z,32.60
2019-05-25T15:25:10.951Z,33.10
2019-05-25T15:27:38.628Z,33.40
2019-05-25T15:30:06.484Z,33.00
2019-05-25T15:32:32.853Z,32.30
2019-05-25T15:35:00.015Z,32.50
2019-05-25T15:37:26.784Z,32.30
2019-05-25T15:39:53.176Z,31.20
2019-05-25T15:42:19.504Z,32.00
2019-05-25T15:44:46.071Z,30.40
2019-05-25T15:47:12.462Z,29.90
2019-05-25T15:49:41.164Z,29.60
2019-05-25T15:52:07.834Z,29.20
2019-05-25T15:54:34.181Z,30.90
2019-05-25T15:57:00.844Z,30.40
2019-05-25T15:59:27.157Z,30.60
2019-05-25T16:01:53.487Z,30.30
2019-05-25T16:04:19.821Z,29.80
2019-05-25T16:06:46.177Z,29.10
2019-05-25T16:09:12.945Z,29.60
2019-05-25T16:11:39.310Z,29.60
2019-05-25T16:14:07.602Z,30.00
2019-05-25T16:16:33.915Z,30.80
2019-05-25T16:19:00.255Z,30.80
2019-05-25T16:21:27.900Z,30.70
2019-05-25T16:23:54.349Z,29.90
2019-05-25T16:26:20.714Z,30.20
2019-05-25T16:28:47.356Z,31.00
2019-05-25T16:31:13.713Z,31.90
2019-05-25T16:33:40.175Z,32.60
2019-05-25T16:36:06.955Z,32.60
2019-05-25T16:38:33.291Z,31.80
2019-05-25T16:41:00.925Z,30.60
2019-05-25T16:43:27.253Z,29.90
2019-05-25T16:46:26.382Z,29.30
2019-05-25T16:48:53.848Z,28.70
2019-05-25T16:51:21.234Z,27.80
2019-05-25T16:53:47.565Z,28.60
2019-05-25T16:56:13.899Z,29.20
2019-05-25T16:58:40.228Z,28.20
2019-05-25T17:01:06.561Z,27.20
2019-05-25T17:03:33.560Z,27.80
2019-05-25T17:05:59.941Z,27.70
2019-05-25T17:08:31.844Z,27.50
2019-05-25T17:11:00.776Z,25.90
2019-05-25T17:13:27.123Z,25.60
2019-05-25T17:15:53.526Z,26.80
2019-05-25T17:18:19.968Z,27.80
2019-05-25T17:20:47.183Z,27.90
2019-05-25T17:23:13.845Z,28.50
2019-05-25T17:25:41.408Z,28.40
2019-05-25T17:28:09.034Z,28.00
2019-05-25T17:30:44.532Z,27.70
2019-05-25T17:33:11.704Z,27.70
2019-05-25T17:35:41.194Z,27.70
2019-05-25T17:38:08.428Z,27.10
2019-05-25T17:40:34.899Z,27.40
2019-05-25T17:43:01.453Z,27.30
2019-05-25T17:45:27.772Z,27.50
2019-05-25T17:47:54.109Z,27.60
2019-05-25T17:50:20.544Z,28.00
2019-05-25T17:52:46.975Z,27.60
2019-05-25T17:55:14.708Z,27.80
2019-05-25T17:57:41.686Z,27.70
2019-05-25T18:00:08.943Z,27.00
2019-05-25T18:02:35.279Z,26.50
2019-05-25T18:05:02.810Z,26.50
2019-05-25T18:07:29.160Z,26.20
2019-05-25T18:09:55.833Z,25.60
2019-05-25T18:12:22.193Z,25.10
2019-05-25T18:14:48.493Z,24.50
2019-05-25T18:17:14.813Z,23.10
2019-05-25T18:19:41.186Z,22.10
2019-05-25T18:22:07.551Z,21.40
2019-05-25T18:24:33.964Z,20.70
2019-05-25T18:27:00.838Z,20.40
2019-05-25T18:29:27.212Z,20.10
2019-05-25T18:31:53.649Z,19.90
2019-05-25T18:34:22.404Z,19.70
2019-05-25T18:36:48.512Z,19.60
2019-05-25T18:39:14.894Z,19.40
2019-05-25T18:41:41.223Z,19.20
2019-05-25T18:44:07.663Z,19.10
2019-05-25T18:46:34.026Z,18.90
2019-05-25T18:49:01.605Z,18.70
2019-05-25T18:51:28.264Z,18.60
2019-05-25T18:53:55.060Z,18.50
2019-05-25T18:56:21.497Z,18.30
2019-05-25T18:58:47.904Z,18.20
2019-05-25T19:01:15.491Z,18.10
2019-05-25T19:03:42.304Z,18.00
2019-05-25T19:06:08.847Z,17.90
2019-05-25T19:08:35.591Z,17.80
2019-05-25T19:11:01.985Z,17.70
2019-05-25T19:13:28.445Z,17.60
2019-05-25T19:15:54.787Z,17.50
2019-05-25T19:18:21.282Z,17.50
2019-05-25T19:20:47.602Z,17.40
2019-05-25T19:23:13.944Z,17.30
2019-05-25T19:25:40.281Z,17.20
2019-05-25T19:28:06.614Z,17.20
2019-05-25T19:30:33.308Z,17.10
2019-05-25T19:32:59.746Z,17.00
2019-05-25T19:35:26.093Z,16.90
2019-05-25T19:37:52.447Z,16.80
2019-05-25T19:40:19.057Z,16.70
2019-05-25T19:42:49.510Z,16.70
2019-05-25T19:45:14.486Z,16.50
2019-05-25T19:47:40.861Z,16.50
2019-05-25T19:50:07.597Z,16.40
2019-05-25T19:52:33.972Z,16.30
2019-05-25T19:55:00.896Z,16.20
2019-05-25T19:57:27.252Z,16.10
2019-05-25T19:59:53.585Z,16.00
2019-05-25T20:02:19.961Z,15.90
2019-05-25T20:04:46.435Z,15.80
2019-05-25T20:07:12.938Z,15.80
2019-05-25T20:09:39.261Z,15.80
2019-05-25T20:12:05.626Z,15.70
2019-05-25T20:14:31.987Z,15.70
2019-05-25T20:16:58.687Z,15.60
2019-05-25T20:19:25.353Z,15.50
2019-05-25T20:25:28.379Z,15.40
2019-05-25T20:27:54.775Z,15.30
2019-05-25T20:30:21.166Z,15.20
2019-05-25T20:32:47.590Z,15.20
2019-05-25T20:35:14.590Z,15.20
2019-05-25T20:37:41.245Z,15.10
2019-05-25T20:40:08.769Z,15.10
2019-05-25T20:42:35.795Z,15.00
2019-05-25T20:45:07.306Z,15.00
2019-05-25T20:47:33.623Z,14.90
2019-05-25T20:50:00.282Z,14.80
2019-05-25T20:52:26.602Z,14.80
2019-05-25T20:54:52.978Z,14.70
2019-05-25T20:57:19.290Z,14.70
2019-05-25T20:59:45.642Z,14.60
2019-05-25T21:02:12.263Z,14.50
2019-05-25T21:04:38.609Z,14.40
2019-05-25T21:07:04.980Z,14.40
2019-05-25T21:09:31.332Z,14.40
2019-05-25T21:11:57.707Z,14.30
2019-05-25T21:14:24.412Z,14.30
2019-05-25T21:16:53.723Z,14.30
2019-05-25T21:19:21.921Z,14.20
2019-05-25T21:21:48.246Z,14.20
2019-05-25T21:24:14.692Z,14.20
2019-05-25T21:26:41.031Z,14.20
2019-05-25T21:29:07.391Z,14.20
2019-05-25T21:31:33.745Z,14.20
2019-05-25T21:34:01.064Z,14.10
2019-05-25T21:36:27.411Z,14.10
2019-05-25T21:38:54.161Z,14.00
2019-05-25T21:41:20.530Z,14.00
2019-05-25T21:43:46.949Z,13.90
2019-05-25T21:46:14.689Z,13.90
2019-05-25T21:48:41.304Z,14.00
2019-05-25T21:51:09.606Z,13.90
2019-05-25T21:53:35.916Z,13.90
2019-05-25T21:56:02.294Z,13.80
2019-05-25T21:58:28.921Z,13.80
2019-05-25T22:00:55.285Z,13.60
2019-05-25T22:03:23.630Z,13.60
2019-05-25T22:05:49.951Z,13.50
2019-05-25T22:08:16.256Z,13.50
2019-05-25T22:10:42.601Z,13.50
2019-05-25T22:13:24.947Z,13.50
2019-05-25T22:15:37.302Z,13.40
2019-05-25T22:18:04.229Z,13.30
2019-05-25T22:20:30.883Z,13.30
2019-05-25T22:22:57.235Z,13.10
2019-05-25T22:25:23.548Z,13.00
2019-05-25T22:27:50.322Z,13.10
2019-05-25T22:30:17.346Z,13.20
2019-05-25T22:32:43.698Z,13.10
2019-05-25T22:35:11.279Z,13.00
2019-05-25T22:37:37.692Z,13.00
2019-05-25T22:40:05.850Z,12.90
2019-05-25T22:42:32.204Z,12.80
2019-05-25T22:44:58.549Z,12.90
2019-05-25T22:47:24.865Z,12.80
2019-05-25T22:49:52.426Z,12.80
2019-05-25T22:52:18.745Z,12.80
2019-05-25T22:54:45.098Z,12.80
2019-05-25T22:57:11.406Z,12.80
2019-05-25T22:59:37.746Z,12.90
2019-05-25T23:02:23.100Z,12.80
2019-05-25T23:04:49.475Z,12.80
2019-05-25T23:07:16.211Z,12.90
2019-05-25T23:09:42.543Z,12.90
2019-05-25T23:12:10.234Z,12.90
2019-05-25T23:14:36.609Z,12.90
2019-05-25T23:17:03.544Z,12.80
2019-05-25T23:19:29.881Z,12.80
2019-05-25T23:21:56.210Z,12.90
2019-05-25T23:24:22.971Z,13.10
2019-05-25T23:26:49.313Z,13.10
2019-05-25T23:29:15.649Z,13.10
2019-05-25T23:31:41.975Z,13.10
2019-05-25T23:34:08.344Z,13.10
2019-05-25T23:36:34.667Z,13.10
2019-05-25T23:39:01.008Z,13.10
2019-05-25T23:41:27.684Z,12.90
2019-05-25T23:43:54.048Z,12.80
2019-05-25T23:46:20.410Z,12.70
2019-05-25T23:48:47.842Z,12.50
2019-05-25T23:51:14.208Z,12.50
2019-05-25T23:53:41.551Z,12.40
2019-05-25T23:56:07.906Z,12.40
2019-05-25T23:58:34.268Z,12.30
